Time;durP1;ratioP1;P1;durP2;ratioP2;P2;SDS_P1;SDS_P2;PMS_P1;PMS_P2;Temp;Humidity;BMP_temperature;BMP_pressure;BME280_temperature;BME280_humidity;BME280_pressure;Samples;Min_cycle;Max_cycle;Signal;HPM_P1;HPM_P2
2021/05/05 00:00:28;;;;;;;0.63;0.35;;;20.60;45.90;;;;;;5036281;28;20364;-48
2021/05/05 00:02:54;;;;;;;1.00;0.43;;;20.60;45.80;;;;;;5036193;28;20033;-48
2021/05/05 00:05:19;;;;;;;0.85;0.28;;;20.60;45.80;;;;;;5036126;28;20087;-47
2021/05/05 00:07:45;;;;;;;0.25;0.20;;;20.60;46.50;;;;;;5035876;28;20090;-50
2021/05/05 00:10:12;;;;;;;0.68;0.30;;;20.50;45.80;;;;;;5035101;28;20025;-54
2021/05/05 00:12:38;;;;;;;0.55;0.20;;;20.50;45.70;;;;;;5036206;28;20029;-52
2021/05/05 00:15:08;;;;;;;0.70;0.20;;;20.50;45.70;;;;;;5036143;28;20336;-49
2021/05/05 00:17:33;;;;;;;0.30;0.30;;;20.50;45.70;;;;;;5033860;28;20364;-51
2021/05/05 00:19:58;;;;;;;0.40;0.28;;;20.50;45.70;;;;;;5036217;28;20021;-51
2021/05/05 00:22:24;;;;;;;0.30;0.20;;;20.50;45.70;;;;;;5035769;28;20030;-48
2021/05/05 00:24:49;;;;;;;1.00;0.28;;;20.50;45.70;;;;;;5036251;28;20466;-51
2021/05/05 00:27:15;;;;;;;0.40;0.30;;;20.50;45.70;;;;;;5036326;28;20021;-50
2021/05/05 00:29:40;;;;;;;0.43;0.22;;;20.50;45.70;;;;;;5018123;28;20030;-49
2021/05/05 00:32:07;;;;;;;0.20;0.20;;;20.50;45.70;;;;;;5035750;28;20026;-48
2021/05/05 00:34:32;;;;;;;0.90;0.40;;;20.40;45.60;;;;;;5035454;28;20080;-46
2021/05/05 00:36:58;;;;;;;1.50;0.32;;;20.50;45.70;;;;;;5035543;28;20340;-45
2021/05/05 00:39:23;;;;;;;0.43;0.30;;;20.40;45.60;;;;;;5035409;28;20028;-49
2021/05/05 00:41:49;;;;;;;0.65;0.30;;;20.40;45.50;;;;;;5035317;28;20283;-49
2021/05/05 00:44:17;;;;;;;0.40;0.10;;;20.40;45.50;;;;;;5035223;28;20116;-51
2021/05/05 00:46:42;;;;;;;0.77;0.50;;;20.50;45.60;;;;;;5035500;28;20029;-46
2021/05/05 00:49:08;;;;;;;0.45;0.25;;;20.40;45.50;;;;;;5035377;28;20022;-48
2021/05/05 00:51:33;;;;;;;1.00;0.28;;;20.40;45.50;;;;;;5035330;28;20100;-47
2021/05/05 00:54:00;;;;;;;0.75;0.20;;;20.40;45.50;;;;;;5035347;28;20026;-46
2021/05/05 00:56:25;;;;;;;0.40;0.28;;;20.40;45.50;;;;;;5035119;28;20029;-50
2021/05/05 00:58:51;;;;;;;0.47;0.30;;;20.40;45.40;;;;;;5035307;28;20022;-46
2021/05/05 01:01:17;;;;;;;4.57;0.80;;;20.40;45.50;;;;;;5035090;28;20160;-46
2021/05/05 01:03:42;;;;;;;2.03;0.30;;;20.40;45.50;;;;;;5034916;28;20144;-47
2021/05/05 01:06:08;;;;;;;2.20;0.70;;;20.40;45.50;;;;;;5035337;28;20033;-45
2021/05/05 01:08:33;;;;;;;0.25;0.17;;;20.40;45.40;;;;;;5035397;28;20021;-46
2021/05/05 01:11:00;;;;;;;0.17;0.13;;;20.40;45.40;;;;;;5034881;28;20044;-48
2021/05/05 01:13:27;;;;;;;1.38;0.20;;;20.30;45.40;;;;;;5035050;28;20037;-47
2021/05/05 01:15:53;;;;;;;0.52;0.40;;;20.30;45.40;;;;;;5035080;28;20022;-47
2021/05/05 01:18:19;;;;;;;0.28;0.10;;;20.30;45.30;;;;;;5035012;28;20487;-48
2021/05/05 01:20:45;;;;;;;1.05;0.40;;;20.30;45.30;;;;;;5034651;28;20033;-47
2021/05/05 01:23:10;;;;;;;0.70;0.32;;;20.30;46.00;;;;;;5034772;28;20033;-47
2021/05/05 01:25:36;;;;;;;0.55;0.40;;;20.30;45.30;;;;;;5035007;28;20036;-47
2021/05/05 01:28:02;;;;;;;0.65;0.20;;;20.30;45.30;;;;;;5035168;28;20073;-47
2021/05/05 01:30:28;;;;;;;0.85;0.30;;;20.20;45.20;;;;;;5017031;28;20053;-47
2021/05/05 01:32:53;;;;;;;1.08;0.30;;;20.30;45.30;;;;;;5035052;28;20030;-50
2021/05/05 01:35:20;;;;;;;1.17;0.38;;;20.30;45.30;;;;;;5016799;28;20463;-50
2021/05/05 01:37:50;;;;;;;0.60;0.20;;;20.30;45.30;;;;;;5034905;28;20029;-46
2021/05/05 01:40:27;;;;;;;0.75;0.40;;;20.20;45.20;;;;;;5035019;28;20032;-49
2021/05/05 01:42:53;;;;;;;0.95;0.40;;;20.20;45.20;;;;;;5034247;28;20032;-48
2021/05/05 01:45:19;;;;;;;0.65;0.30;;;20.30;45.30;;;;;;5034799;28;20037;-48
2021/05/05 01:47:45;;;;;;;1.98;0.50;;;20.30;45.30;;;;;;5034807;28;20037;-48
2021/05/05 01:50:11;;;;;;;0.90;0.22;;;20.30;45.20;;;;;;5034341;28;20037;-46
2021/05/05 01:52:37;;;;;;;0.70;0.28;;;20.20;45.20;;;;;;5035117;28;20029;-48
2021/05/05 01:55:05;;;;;;;1.55;0.35;;;20.30;45.20;;;;;;5034552;28;20032;-49
2021/05/05 01:57:35;;;;;;;0.75;0.30;;;20.30;45.20;;;;;;5034508;28;20018;-49
2021/05/05 02:00:02;;;;;;;0.95;0.40;;;20.20;45.20;;;;;;5034181;28;20460;-46
2021/05/05 02:02:28;;;;;;;1.00;0.28;;;20.20;45.20;;;;;;5034468;28;20452;-50
2021/05/05 02:04:54;;;;;;;0.30;0.20;;;20.20;45.20;;;;;;5034026;28;20025;-52
2021/05/05 02:07:20;;;;;;;0.30;0.20;;;20.20;45.20;;;;;;5034348;28;20038;-47
2021/05/05 02:09:45;;;;;;;0.85;0.20;;;20.20;45.10;;;;;;5034780;28;20368;-50
2021/05/05 02:12:13;;;;;;;1.17;0.40;;;20.20;45.20;;;;;;5034741;28;20463;-47
2021/05/05 02:14:39;;;;;;;0.52;0.30;;;20.20;45.80;;;;;;5034520;28;20456;-46
2021/05/05 02:17:05;;;;;;;0.47;0.30;;;20.10;45.10;;;;;;5033815;28;20116;-48
2021/05/05 02:19:30;;;;;;;1.23;0.38;;;20.10;45.10;;;;;;5034291;28;20037;-48
2021/05/05 02:21:56;;;;;;;0.82;0.47;;;20.20;45.20;;;;;;5034249;28;20026;-47
2021/05/05 02:24:21;;;;;;;0.80;0.22;;;20.10;45.10;;;;;;5034227;28;20094;-48
2021/05/05 02:26:47;;;;;;;1.15;0.50;;;20.10;45.10;;;;;;5034421;28;20033;-49
2021/05/05 02:29:13;;;;;;;0.40;0.25;;;20.10;45.10;;;;;;5034203;28;20025;-49
2021/05/05 02:31:38;;;;;;;1.27;0.30;;;20.10;45.10;;;;;;5034274;28;20444;-50
2021/05/05 02:34:04;;;;;;;0.43;0.28;;;20.10;45.10;;;;;;5036081;28;20467;-49
2021/05/05 02:36:31;;;;;;;1.75;0.47;;;20.10;45.00;;;;;;5038607;28;20100;-49
2021/05/05 02:38:58;;;;;;;0.52;0.30;;;20.10;45.00;;;;;;5037662;28;20021;-47
2021/05/05 02:41:24;;;;;;;1.15;0.30;;;20.10;45.00;;;;;;5037640;28;20021;-48
2021/05/05 02:43:50;;;;;;;1.80;0.40;;;20.10;45.00;;;;;;5037205;28;20033;-48
2021/05/05 02:46:16;;;;;;;0.77;0.30;;;20.10;45.00;;;;;;5037633;28;20424;-48
2021/05/05 02:48:42;;;;;;;1.33;0.50;;;20.10;45.00;;;;;;5037533;28;20052;-46
2021/05/05 02:51:07;;;;;;;1.08;0.50;;;20.10;45.00;;;;;;5037144;28;20179;-50
2021/05/05 02:53:33;;;;;;;0.90;0.40;;;20.10;45.00;;;;;;5037609;28;20026;-49
2021/05/05 02:55:58;;;;;;;0.35;0.30;;;20.00;45.00;;;;;;5037335;28;20032;-47
2021/05/05 02:58:24;;;;;;;0.93;0.43;;;20.00;45.00;;;;;;5036984;28;20444;-51
2021/05/05 03:00:49;;;;;;;0.65;0.30;;;20.00;45.00;;;;;;5019317;28;20018;-48
2021/05/05 03:03:15;;;;;;;0.93;0.40;;;20.00;44.90;;;;;;5037255;28;20033;-48
2021/05/05 03:05:40;;;;;;;0.50;0.40;;;20.00;45.00;;;;;;5037621;28;20052;-49
2021/05/05 03:08:06;;;;;;;0.88;0.50;;;20.00;44.90;;;;;;5037397;28;20025;-47
2021/05/05 03:10:32;;;;;;;0.47;0.30;;;20.00;44.90;;;;;;5037389;28;20022;-46
2021/05/05 03:12:58;;;;;;;0.82;0.40;;;20.00;45.00;;;;;;5037182;28;20040;-46
2021/05/05 03:15:23;;;;;;;0.88;0.32;;;20.00;44.90;;;;;;5036954;28;20021;-49
2021/05/05 03:17:49;;;;;;;1.38;0.55;;;20.00;44.90;;;;;;5036826;28;20052;-48
2021/05/05 03:20:14;;;;;;;0.98;0.47;;;20.00;44.90;;;;;;5036945;28;20080;-46
2021/05/05 03:22:40;;;;;;;1.25;0.60;;;20.00;44.90;;;;;;5036941;28;20063;-49
2021/05/05 03:25:08;;;;;;;1.02;0.45;;;19.90;44.80;;;;;;5036526;28;20025;-50
2021/05/05 03:27:33;;;;;;;1.20;0.40;;;19.90;44.80;;;;;;5036909;28;20029;-48
2021/05/05 03:29:59;;;;;;;1.05;0.40;;;19.90;44.80;;;;;;5036279;28;20033;-47
2021/05/05 03:32:25;;;;;;;0.90;0.55;;;19.90;44.80;;;;;;5036567;28;20062;-47
2021/05/05 03:34:51;;;;;;;0.77;0.40;;;19.90;44.80;;;;;;5036392;28;20448;-47
2021/05/05 03:37:16;;;;;;;0.65;0.50;;;19.90;44.80;;;;;;5036368;28;20028;-46
2021/05/05 03:39:42;;;;;;;0.73;0.45;;;19.90;44.80;;;;;;5036588;28;20394;-51
2021/05/05 03:42:07;;;;;;;0.70;0.38;;;19.90;44.80;;;;;;5036598;28;20033;-50
2021/05/05 03:44:33;;;;;;;1.90;1.05;;;19.90;44.80;;;;;;5035536;28;20037;-51
2021/05/05 03:46:59;;;;;;;0.85;0.38;;;19.90;44.80;;;;;;5036092;28;20432;-49
2021/05/05 03:49:25;;;;;;;0.25;0.20;;;19.90;44.80;;;;;;5036511;28;20429;-47
2021/05/05 03:51:50;;;;;;;0.63;0.50;;;19.90;44.80;;;;;;5036027;28;20441;-48
2021/05/05 03:54:17;;;;;;;0.88;0.32;;;19.90;44.80;;;;;;5036243;28;20021;-51
2021/05/05 03:56:43;;;;;;;1.08;0.40;;;19.90;44.90;;;;;;5036622;28;20032;-50
2021/05/05 03:59:09;;;;;;;2.20;0.68;;;19.80;44.80;;;;;;5036222;28;20428;-46
2021/05/05 04:01:34;;;;;;;1.80;0.52;;;19.80;44.80;;;;;;5036032;28;20040;-49
2021/05/05 04:04:00;;;;;;;1.27;0.30;;;19.90;44.90;;;;;;5036070;28;20116;-51
2021/05/05 04:06:25;;;;;;;2.35;0.50;;;19.80;44.80;;;;;;5036059;28;20372;-49
2021/05/05 04:08:51;;;;;;;0.28;0.22;;;19.80;44.80;;;;;;5036434;28;20048;-48
2021/05/05 04:11:17;;;;;;;0.40;0.40;;;19.80;44.80;;;;;;5035715;28;20025;-49
2021/05/05 04:13:42;;;;;;;1.42;0.55;;;19.80;44.80;;;;;;5035543;28;20044;-48
2021/05/05 04:16:08;;;;;;;1.15;0.47;;;19.80;44.80;;;;;;5035560;28;20025;-52
2021/05/05 04:18:34;;;;;;;1.00;0.30;;;19.80;44.80;;;;;;5035788;28;20073;-55
2021/05/05 04:21:02;;;;;;;1.55;0.77;;;19.80;44.80;;;;;;5035781;28;20464;-52
2021/05/05 04:23:29;;;;;;;1.55;0.40;;;19.80;44.80;;;;;;5035832;28;20075;-50
2021/05/05 04:25:54;;;;;;;1.48;0.75;;;19.80;44.80;;;;;;5036020;28;20028;-51
2021/05/05 04:28:20;;;;;;;0.93;0.50;;;19.80;44.80;;;;;;5035163;28;20025;-54
2021/05/05 04:30:46;;;;;;;1.15;0.50;;;19.80;44.80;;;;;;5035613;28;20104;-49
2021/05/05 04:33:12;;;;;;;2.13;0.47;;;19.80;44.80;;;;;;5036071;28;20123;-47
2021/05/05 04:35:37;;;;;;;1.10;0.70;;;19.80;44.80;;;;;;5035357;28;20124;-48
2021/05/05 04:38:03;;;;;;;0.50;0.30;;;19.80;44.80;;;;;;5035489;28;20030;-50
2021/05/05 04:40:28;;;;;;;1.45;0.47;;;19.80;44.80;;;;;;5035587;28;20030;-48
2021/05/05 04:42:54;;;;;;;2.40;0.40;;;19.80;44.80;;;;;;5035238;28;20030;-49
2021/05/05 04:45:19;;;;;;;1.40;0.40;;;19.70;44.80;;;;;;5035325;28;20664;-48
2021/05/05 04:47:45;;;;;;;1.00;0.32;;;19.80;44.80;;;;;;5035187;28;20108;-47
2021/05/05 04:50:11;;;;;;;1.02;0.40;;;19.70;44.80;;;;;;5035561;28;20413;-47
2021/05/05 04:52:37;;;;;;;1.73;0.50;;;19.70;44.80;;;;;;5035352;28;20033;-49
2021/05/05 04:55:05;;;;;;;1.40;0.50;;;19.70;44.80;;;;;;5035192;28;20021;-46
2021/05/05 04:57:30;;;;;;;0.93;0.40;;;19.70;44.80;;;;;;5034717;28;20035;-47
2021/05/05 04:59:56;;;;;;;0.88;0.45;;;19.70;44.80;;;;;;5035028;28;20484;-47
2021/05/05 05:02:21;;;;;;;0.88;0.40;;;19.70;44.80;;;;;;5035339;28;20467;-49
2021/05/05 05:04:47;;;;;;;2.00;0.50;;;19.70;44.80;;;;;;5035394;28;20021;-47
2021/05/05 05:07:12;;;;;;;3.00;0.77;;;19.70;44.80;;;;;;5035011;28;20071;-46
2021/05/05 05:09:38;;;;;;;2.28;0.73;;;19.70;44.90;;;;;;5034860;28;20018;-48
2021/05/05 05:12:04;;;;;;;2.22;0.93;;;19.70;45.00;;;;;;5034978;28;20021;-49
2021/05/05 05:14:30;;;;;;;1.45;0.43;;;19.70;45.00;;;;;;5035121;28;20029;-49
2021/05/05 05:16:58;;;;;;;0.90;0.57;;;19.70;45.10;;;;;;5017476;28;20455;-48
2021/05/05 05:19:24;;;;;;;6.15;0.77;;;19.70;45.30;;;;;;5034989;28;20044;-46
2021/05/05 05:21:49;;;;;;;1.65;0.47;;;19.70;45.50;;;;;;5034321;28;20104;-46
2021/05/05 05:24:14;;;;;;;1.65;0.57;;;19.70;45.60;;;;;;5034812;28;20072;-47
2021/05/05 05:26:40;;;;;;;6.43;0.98;;;19.70;45.80;;;;;;5034897;28;20029;-47
2021/05/05 05:29:06;;;;;;;2.72;0.52;;;19.70;45.80;;;;;;5034585;28;20037;-48
2021/05/05 05:31:32;;;;;;;1.92;0.50;;;19.70;45.80;;;;;;5034773;28;20022;-47
2021/05/05 05:33:58;;;;;;;1.20;0.65;;;19.70;45.90;;;;;;5034466;28;20030;-50
2021/05/05 05:36:23;;;;;;;1.80;0.45;;;19.70;46.00;;;;;;5033759;28;20041;-48
2021/05/05 05:38:49;;;;;;;3.03;0.68;;;19.70;46.00;;;;;;5034005;28;20091;-47
2021/05/05 05:41:14;;;;;;;2.63;0.55;;;19.70;46.10;;;;;;5034408;28;20026;-42
2021/05/05 05:43:40;;;;;;;2.45;0.90;;;19.70;46.10;;;;;;5034683;28;20144;-46
2021/05/05 05:46:05;;;;;;;1.67;0.57;;;19.70;46.00;;;;;;5034987;28;20072;-43
2021/05/05 05:48:31;;;;;;;2.60;1.35;;;19.70;45.90;;;;;;5034595;28;20099;-48
2021/05/05 05:50:57;;;;;;;1.40;0.82;;;19.70;45.90;;;;;;5034570;28;20092;-46
2021/05/05 05:53:23;;;;;;;3.78;0.52;;;19.70;45.90;;;;;;5034610;28;20029;-45
2021/05/05 05:55:49;;;;;;;2.50;0.80;;;19.70;46.00;;;;;;5034311;28;20041;-46
2021/05/05 05:58:15;;;;;;;1.92;0.70;;;19.70;46.40;;;;;;5034579;28;20036;-45
2021/05/05 06:00:40;;;;;;;1.85;0.50;;;19.80;46.30;;;;;;5034253;28;20368;-48
2021/05/05 06:03:06;;;;;;;2.53;0.50;;;19.80;46.30;;;;;;5034389;28;20025;-49
2021/05/05 06:05:33;;;;;;;7.65;1.23;;;19.80;46.20;;;;;;5034146;28;20036;-48
2021/05/05 06:07:58;;;;;;;4.30;0.70;;;19.80;46.00;;;;;;5033739;28;20441;-49
2021/05/05 06:10:24;;;;;;;2.65;0.40;;;19.80;45.80;;;;;;5048762;28;20025;-47
2021/05/05 06:12:50;;;;;;;3.00;0.50;;;19.80;45.70;;;;;;5058198;28;20041;-49
2021/05/05 06:15:15;;;;;;;1.70;0.50;;;19.90;45.70;;;;;;5058208;28;20043;-48
2021/05/05 06:17:41;;;;;;;1.92;0.68;;;19.90;45.70;;;;;;5057619;28;20025;-51
2021/05/05 06:20:08;;;;;;;1.95;0.43;;;19.90;45.60;;;;;;5057815;28;20028;-49
2021/05/05 06:22:33;;;;;;;2.08;0.47;;;20.00;45.60;;;;;;5057745;28;20067;-47
2021/05/05 06:25:00;;;;;;;6.05;0.77;;;20.00;45.60;;;;;;5056789;28;20464;-46
2021/05/05 06:27:26;;;;;;;0.85;0.68;;;20.00;45.50;;;;;;5056106;28;20025;-48
2021/05/05 06:29:51;;;;;;;2.00;0.50;;;20.00;45.60;;;;;;5057484;28;20029;-47
2021/05/05 06:32:17;;;;;;;4.78;0.50;;;20.10;45.50;;;;;;5057773;28;20028;-53
2021/05/05 06:34:42;;;;;;;3.33;0.70;;;20.10;45.50;;;;;;5057217;28;20072;-52
2021/05/05 06:37:08;;;;;;;5.25;0.63;;;20.10;45.60;;;;;;5057658;28;20032;-49
2021/05/05 06:39:34;;;;;;;1.20;0.60;;;20.10;45.60;;;;;;5057510;28;20049;-49
2021/05/05 06:42:00;;;;;;;2.40;0.40;;;20.10;45.60;;;;;;5057632;28;20032;-51
2021/05/05 06:44:27;;;;;;;2.65;0.40;;;20.10;45.60;;;;;;5057419;28;20032;-52
2021/05/05 06:46:55;;;;;;;1.63;0.60;;;20.20;45.60;;;;;;5057148;28;20028;-49
2021/05/05 06:49:24;;;;;;;3.03;0.80;;;20.20;45.60;;;;;;5057943;28;20043;-49
2021/05/05 06:51:52;;;;;;;2.40;0.70;;;20.20;45.50;;;;;;5042499;28;20025;-47
2021/05/05 06:54:18;;;;;;;0.95;0.40;;;20.20;45.50;;;;;;5040419;28;20027;-54
2021/05/05 06:56:44;;;;;;;1.77;0.55;;;20.20;45.50;;;;;;5057264;28;20025;-49
2021/05/05 06:59:09;;;;;;;2.28;0.88;;;20.30;45.50;;;;;;5057205;28;20025;-50
2021/05/05 07:01:36;;;;;;;2.72;0.88;;;20.30;45.60;;;;;;5057187;28;20162;-46
2021/05/05 07:04:04;;;;;;;3.28;1.08;;;20.30;45.60;;;;;;5056784;28;20037;-49
2021/05/05 07:06:30;;;;;;;3.20;0.90;;;20.30;45.60;;;;;;5057344;28;20048;-47
2021/05/05 07:08:56;;;;;;;3.78;0.60;;;20.30;45.60;;;;;;5057106;28;20025;-47
2021/05/05 07:11:21;;;;;;;1.92;0.90;;;20.40;45.60;;;;;;5057167;28;20480;-50
2021/05/05 07:13:47;;;;;;;3.65;0.50;;;20.40;45.50;;;;;;5056417;28;20024;-48
2021/05/05 07:16:13;;;;;;;1.30;0.40;;;20.40;45.40;;;;;;5056906;28;20127;-46
2021/05/05 07:18:38;;;;;;;6.80;1.00;;;20.40;45.20;;;;;;5052807;28;20048;-46
2021/05/05 07:21:04;;;;;;;3.08;1.00;;;20.40;44.70;;;;;;5039827;28;20047;-49
2021/05/05 07:23:29;;;;;;;2.08;0.60;;;20.40;44.70;;;;;;5056496;28;20029;-50
2021/05/05 07:25:55;;;;;;;6.65;0.82;;;20.40;44.70;;;;;;5036767;28;20037;-51
2021/05/05 07:28:20;;;;;;;4.20;0.80;;;20.50;44.70;;;;;;5036883;28;20108;-49
2021/05/05 07:30:46;;;;;;;3.22;1.20;;;20.50;44.80;;;;;;5035648;28;20036;-49
2021/05/05 07:33:14;;;;;;;6.13;0.90;;;20.50;44.80;;;;;;5036666;28;20053;-51
2021/05/05 07:35:43;;;;;;;2.28;0.90;;;20.50;44.80;;;;;;5036533;28;20095;-46
2021/05/05 07:38:20;;;;;;;2.33;0.90;;;20.50;44.80;;;;;;5036188;28;20444;-51
2021/05/05 07:48:57;;;;;;;2.88;0.70;;;20.60;44.90;;;;;;5036265;28;20025;-46
2021/05/05 07:51:22;;;;;;;3.90;1.02;;;20.60;45.00;;;;;;5036423;28;20018;-48
2021/05/05 07:53:50;;;;;;;2.25;0.90;;;20.60;44.90;;;;;;5036211;28;20025;-47
2021/05/05 07:56:16;;;;;;;3.25;0.73;;;20.70;45.00;;;;;;5035905;28;20044;-51
2021/05/05 07:58:42;;;;;;;2.40;0.90;;;20.70;45.00;;;;;;5037438;28;20100;-48
2021/05/05 08:01:09;;;;;;;3.33;0.57;;;20.70;45.00;;;;;;5035644;28;20026;-46
2021/05/05 08:03:35;;;;;;;4.70;0.85;;;20.70;45.00;;;;;;5017732;28;20041;-47
2021/05/05 08:06:01;;;;;;;2.00;0.60;;;20.80;45.20;;;;;;5036003;28;20025;-46
2021/05/05 08:08:26;;;;;;;5.93;0.80;;;20.80;45.30;;;;;;5036510;28;20348;-46
2021/05/05 08:10:52;;;;;;;3.00;1.20;;;20.80;45.20;;;;;;5035662;28;20033;-47
2021/05/05 08:13:17;;;;;;;4.88;1.27;;;20.80;45.20;;;;;;5035811;28;20029;-46
2021/05/05 08:15:43;;;;;;;3.55;1.27;;;20.80;45.00;;;;;;5035420;28;20021;-47
2021/05/05 08:18:09;;;;;;;4.28;0.98;;;20.80;44.10;;;;;;5035606;28;20179;-49
2021/05/05 08:20:35;;;;;;;2.65;0.90;;;20.70;44.40;;;;;;5035792;28;20026;-52
2021/05/05 08:23:06;;;;;;;4.38;1.10;;;20.70;44.50;;;;;;5035667;28;20036;-48
2021/05/05 08:25:31;;;;;;;3.60;0.80;;;20.70;44.80;;;;;;5033642;28;20104;-50
2021/05/05 08:27:57;;;;;;;4.60;0.98;;;20.70;45.00;;;;;;5035578;28;20049;-47
2021/05/05 08:30:23;;;;;;;4.93;0.70;;;20.70;45.20;;;;;;5035124;28;20068;-51
2021/05/05 08:32:49;;;;;;;5.85;0.77;;;20.70;45.30;;;;;;5035795;28;20030;-50
2021/05/05 08:35:15;;;;;;;2.42;0.98;;;20.80;45.50;;;;;;5038381;28;20132;-51
2021/05/05 08:37:41;;;;;;;5.97;1.05;;;20.80;45.60;;;;;;5035655;28;20057;-51
2021/05/05 08:40:09;;;;;;;5.25;0.93;;;20.90;45.80;;;;;;5034585;28;20052;-51
2021/05/05 08:42:36;;;;;;;3.00;1.00;;;20.90;45.80;;;;;;5049523;28;20021;-48
2021/05/05 08:45:02;;;;;;;4.15;0.80;;;20.90;45.90;;;;;;5037822;28;20089;-51
2021/05/05 08:47:28;;;;;;;2.47;0.85;;;20.90;46.00;;;;;;5036930;28;20025;-50
2021/05/05 08:49:54;;;;;;;2.53;0.70;;;20.90;46.10;;;;;;5054605;28;20029;-48
2021/05/05 08:52:19;;;;;;;1.92;0.75;;;21.00;46.10;;;;;;5055571;28;20028;-48
2021/05/05 08:54:46;;;;;;;6.32;0.90;;;21.00;46.10;;;;;;5053984;28;20025;-49
2021/05/05 08:57:15;;;;;;;5.03;0.90;;;21.00;46.20;;;;;;5054816;28;20032;-51
2021/05/05 08:59:40;;;;;;;4.55;0.90;;;21.10;46.50;;;;;;5054946;28;20029;-51
2021/05/05 09:02:06;;;;;;;4.60;1.15;;;21.10;46.50;;;;;;5054875;28;20047;-55
2021/05/05 09:04:32;;;;;;;4.78;1.40;;;21.10;47.30;;;;;;5054543;28;20167;-54
2021/05/05 09:06:59;;;;;;;10.05;1.55;;;21.10;46.60;;;;;;5054623;28;20090;-54
2021/05/05 09:09:43;;;;;;;2.40;0.70;;;21.10;46.40;;;;;;5054836;28;20032;-54
2021/05/05 09:12:19;;;;;;;6.22;0.80;;;21.20;46.40;;;;;;5054782;28;20083;-57
2021/05/05 09:14:52;;;;;;;5.18;1.10;;;21.20;46.40;;;;;;5037309;28;20028;-56
2021/05/05 09:17:22;;;;;;;6.78;1.30;;;21.30;46.40;;;;;;5054611;28;20364;-55
2021/05/05 09:19:48;;;;;;;8.43;0.98;;;21.30;46.50;;;;;;5054939;28;20075;-57
2021/05/05 09:22:36;;;;;;;13.95;1.05;;;21.30;46.40;;;;;;5054656;28;20032;-58
2021/05/05 09:25:04;;;;;;;4.65;0.75;;;21.30;46.40;;;;;;5054755;28;20036;-56
2021/05/05 09:27:33;;;;;;;6.00;0.77;;;21.30;46.40;;;;;;5054437;28;20017;-56
2021/05/05 09:30:00;;;;;;;6.15;1.15;;;21.30;46.40;;;;;;5054651;28;20029;-56
2021/05/05 09:32:26;;;;;;;2.90;0.60;;;21.30;46.40;;;;;;5054700;28;20036;-56
2021/05/05 09:34:58;;;;;;;6.60;0.70;;;21.30;46.40;;;;;;5054463;28;20017;-58
2021/05/05 09:37:25;;;;;;;7.78;1.02;;;21.30;46.40;;;;;;5054583;28;20109;-56
2021/05/05 09:40:05;;;;;;;10.55;1.33;;;21.30;46.40;;;;;;5054312;28;20036;-55
2021/05/05 09:42:33;;;;;;;4.40;0.65;;;21.30;46.40;;;;;;5055265;28;20033;-50
2021/05/05 09:45:06;;;;;;;5.65;1.05;;;21.30;46.50;;;;;;5058329;28;20355;-54
2021/05/05 09:47:50;;;;;;;3.65;0.70;;;21.30;46.50;;;;;;5059086;28;20021;-51
2021/05/05 09:50:25;;;;;;;;;;;21.30;46.50;;;;;;5058919;28;20045;-51
2021/05/05 09:52:51;;;;;;;5.93;0.60;;;21.30;46.60;;;;;;5058640;28;19915;-53
2021/05/05 09:55:19;;;;;;;1.80;0.60;;;21.20;46.60;;;;;;5058172;28;20376;-53
2021/05/05 09:57:45;;;;;;;3.53;0.90;;;21.20;46.60;;;;;;5058017;28;20033;-49
2021/05/05 10:00:18;;;;;;;4.38;0.80;;;21.20;46.60;;;;;;5057949;28;20025;-55
2021/05/05 10:02:44;;;;;;;5.18;0.63;;;21.30;46.70;;;;;;5058050;28;20021;-52
2021/05/05 10:05:23;;;;;;;3.17;0.82;;;21.30;46.70;;;;;;5057979;28;20033;-57
2021/05/05 10:08:04;;;;;;;3.50;0.63;;;21.30;46.70;;;;;;5058407;28;20020;-54
2021/05/05 10:10:32;;;;;;;4.15;0.75;;;21.40;47.30;;;;;;5058084;28;20085;-58
2021/05/05 10:13:03;;;;;;;5.20;1.08;;;21.40;46.60;;;;;;5058360;28;20026;-55
2021/05/05 10:15:31;;;;;;;2.08;0.70;;;21.40;46.60;;;;;;5058271;28;20033;-53
2021/05/05 10:17:57;;;;;;;4.50;1.02;;;21.40;46.50;;;;;;5057968;28;20021;-53
2021/05/05 10:20:25;;;;;;;5.30;1.10;;;21.40;46.50;;;;;;5058040;28;20404;-57
2021/05/05 10:22:56;;;;;;;4.88;1.00;;;21.40;46.40;;;;;;5057901;28;20341;-58
2021/05/05 10:25:22;;;;;;;1.95;0.70;;;21.50;46.40;;;;;;5057584;28;20029;-56
2021/05/05 10:27:49;;;;;;;2.97;1.08;;;21.50;46.30;;;;;;5057848;28;20024;-54
2021/05/05 10:30:18;;;;;;;2.10;0.68;;;21.50;46.30;;;;;;5058030;28;20025;-53
2021/05/05 10:32:45;;;;;;;3.15;0.85;;;21.40;46.20;;;;;;5057313;28;20455;-56
2021/05/05 10:35:16;;;;;;;5.25;0.65;;;21.50;46.30;;;;;;5057263;28;20084;-55
2021/05/05 10:37:59;;;;;;;2.83;1.00;;;21.50;46.20;;;;;;5056696;28;20025;-56
2021/05/05 10:40:27;;;;;;;2.47;0.75;;;21.50;46.20;;;;;;5057647;28;20082;-55
2021/05/05 10:42:58;;;;;;;3.10;0.82;;;21.50;46.10;;;;;;5057423;28;20029;-58
2021/05/05 10:45:33;;;;;;;8.95;0.73;;;21.50;46.20;;;;;;5057370;28;20032;-53
2021/05/05 10:48:14;;;;;;;2.40;0.60;;;21.50;46.20;;;;;;5057438;28;20462;-54
2021/05/05 10:51:00;;;;;;;5.25;0.93;;;21.60;46.30;;;;;;5057362;28;20033;-52
2021/05/05 10:53:38;;;;;;;2.05;0.60;;;21.60;46.40;;;;;;5056565;28;20063;-49
2021/05/05 10:56:21;;;;;;;2.45;0.82;;;21.60;46.50;;;;;;5056913;28;20035;-51
2021/05/05 10:59:00;;;;;;;3.95;0.70;;;21.70;46.70;;;;;;5056949;28;20483;-53
2021/05/05 11:01:39;;;;;;;1.55;0.98;;;21.60;46.60;;;;;;5057293;28;20175;-53
2021/05/05 11:04:06;;;;;;;4.03;0.73;;;21.60;46.50;;;;;;5057368;28;20455;-58
2021/05/05 11:06:59;;;;;;;2.65;0.77;;;21.60;46.50;;;;;;5056862;28;20108;-53
2021/05/05 11:09:24;;;;;;;3.90;1.10;;;21.60;46.40;;;;;;5056387;28;20116;-55
2021/05/05 11:11:52;;;;;;;4.60;1.05;;;21.60;46.50;;;;;;5057012;28;20072;-55
2021/05/05 11:14:23;;;;;;;3.75;1.23;;;21.60;46.30;;;;;;5057125;28;20022;-52
2021/05/05 11:16:52;;;;;;;3.40;1.20;;;21.60;46.00;;;;;;5057019;28;20139;-55
2021/05/05 11:19:36;;;;;;;3.15;0.90;;;21.60;46.00;;;;;;5056776;28;20435;-54
2021/05/05 11:22:03;;;;;;;6.28;0.65;;;21.60;46.00;;;;;;5056851;28;20029;-50
2021/05/05 11:24:31;;;;;;;7.25;1.27;;;21.60;46.00;;;;;;5056695;28;20047;-54
2021/05/05 11:26:58;;;;;;;2.60;1.15;;;21.60;45.80;;;;;;5056671;28;20017;-56
2021/05/05 11:29:36;;;;;;;6.28;1.63;;;21.60;45.70;;;;;;5056456;28;20075;-52
2021/05/05 11:32:10;;;;;;;2.30;0.95;;;21.60;45.60;;;;;;5056723;28;20025;-54
2021/05/05 11:34:38;;;;;;;4.53;0.98;;;21.60;45.60;;;;;;5056581;28;20444;-54
2021/05/05 11:37:21;;;;;;;4.38;1.92;;;21.60;45.60;;;;;;5056721;28;20061;-55
2021/05/05 11:39:58;;;;;;;5.25;1.35;;;21.60;45.50;;;;;;5056694;28;20029;-55
2021/05/05 11:42:36;;;;;;;8.05;1.73;;;21.60;45.50;;;;;;5038664;28;20039;-57
2021/05/05 11:45:04;;;;;;;3.45;1.48;;;21.60;45.60;;;;;;5056631;28;20060;-56
2021/05/05 11:47:32;;;;;;;5.68;1.55;;;21.60;45.50;;;;;;5053239;28;20033;-57
2021/05/05 11:50:10;;;;;;;4.22;1.60;;;21.60;45.70;;;;;;5056016;28;20345;-56
2021/05/05 11:52:44;;;;;;;6.28;1.40;;;21.60;45.70;;;;;;5056286;28;20029;-48
2021/05/05 11:55:09;;;;;;;10.85;1.40;;;21.50;45.70;;;;;;5056242;28;20096;-52
2021/05/05 11:57:37;;;;;;;4.93;1.33;;;21.50;45.00;;;;;;5056120;28;20112;-49
2021/05/05 12:00:36;;;;;;;6.55;1.58;;;21.50;45.30;;;;;;5056194;28;20028;-50
2021/05/05 12:03:10;;;;;;;6.65;1.67;;;21.50;45.50;;;;;;5044047;28;20041;-47
2021/05/05 12:05:40;;;;;;;6.32;1.38;;;21.50;45.70;;;;;;5054824;28;20448;-49
2021/05/05 12:08:09;;;;;;;3.70;1.23;;;21.50;45.80;;;;;;5055924;28;20033;-49
2021/05/05 12:10:34;;;;;;;8.88;1.73;;;21.50;45.80;;;;;;5055541;28;20033;-48
2021/05/05 12:13:24;;;;;;;4.68;1.55;;;21.50;46.00;;;;;;5055612;28;20203;-51
2021/05/05 12:15:59;;;;;;;8.77;1.70;;;21.50;46.20;;;;;;5037913;28;20025;-55
2021/05/05 12:18:37;;;;;;;4.80;1.25;;;21.60;46.30;;;;;;5038071;28;20048;-48
2021/05/05 12:21:07;;;;;;;12.00;2.28;;;21.60;46.40;;;;;;5055818;28;20436;-47
2021/05/05 12:23:41;;;;;;;5.55;1.52;;;21.50;46.30;;;;;;5055396;28;20025;-51
2021/05/05 12:26:26;;;;;;;6.97;2.08;;;21.60;46.30;;;;;;5055666;28;20021;-47
2021/05/05 12:28:57;;;;;;;7.90;1.80;;;21.60;46.50;;;;;;5045693;28;20013;-51
2021/05/05 12:31:27;;;;;;;6.10;1.45;;;21.60;46.50;;;;;;5018436;28;20068;-47
2021/05/05 12:33:54;;;;;;;4.40;1.20;;;21.60;46.50;;;;;;5035306;28;20351;-49
2021/05/05 12:36:25;;;;;;;6.25;1.65;;;21.60;46.40;;;;;;5035353;28;20452;-52
2021/05/05 12:38:53;;;;;;;6.80;1.92;;;21.60;46.40;;;;;;5035505;28;20109;-52
2021/05/05 12:41:25;;;;;;;2.88;1.08;;;21.60;46.50;;;;;;5035644;28;20039;-48
2021/05/05 12:43:59;;;;;;;4.97;1.75;;;21.60;46.50;;;;;;5035197;28;20033;-49
2021/05/05 12:46:33;;;;;;;7.07;1.42;;;21.60;46.40;;;;;;5035019;28;20040;-47
2021/05/05 12:49:02;;;;;;;6.20;1.48;;;21.60;46.40;;;;;;5035601;28;20340;-49
2021/05/05 12:51:36;;;;;;;4.10;1.40;;;21.60;46.40;;;;;;5034956;28;20021;-49
2021/05/05 12:54:03;;;;;;;3.30;1.40;;;21.60;46.40;;;;;;5034822;28;20091;-50
2021/05/05 12:56:41;;;;;;;3.97;1.80;;;21.60;46.40;;;;;;5034870;28;20479;-47
2021/05/05 12:59:08;;;;;;;4.22;1.52;;;21.60;46.40;;;;;;5034939;28;20022;-51